createdAt,value
2023-04-18T00:00:43.184Z,10.54
2023-04-18T00:03:46.008Z,10.52
2023-04-18T00:06:49.927Z,10.53
2023-04-18T00:09:51.596Z,10.60
2023-04-18T00:12:53.213Z,10.71
2023-04-18T00:15:55.199Z,10.76
2023-04-18T00:18:57.485Z,10.89
2023-04-18T00:21:59.940Z,10.77
2023-04-18T00:25:01.560Z,10.74
2023-04-18T00:28:03.171Z,10.78
2023-04-18T00:31:05.160Z,10.71
2023-04-18T00:34:06.885Z,10.75
2023-04-18T00:37:08.727Z,10.84
2023-04-18T00:40:10.898Z,10.72
2023-04-18T00:43:16.996Z,10.80
2023-04-18T00:46:18.711Z,10.69
2023-04-18T00:49:21.670Z,10.87
2023-04-18T00:52:27.103Z,10.69
2023-04-18T00:55:29.661Z,10.75
2023-04-18T00:58:32.192Z,10.71
2023-04-18T01:01:33.971Z,10.81
2023-04-18T01:04:35.795Z,10.67
2023-04-18T01:07:41.756Z,10.80
2023-04-18T01:10:43.508Z,10.70
2023-04-18T01:14:02.185Z,10.65
2023-04-18T01:17:03.884Z,10.62
2023-04-18T01:20:06.507Z,10.62
2023-04-18T01:23:10.536Z,10.59
2023-04-18T01:26:12.363Z,10.64
2023-04-18T01:29:13.983Z,10.56
2023-04-18T01:32:17.727Z,10.59
2023-04-18T01:35:19.576Z,10.50
2023-04-18T01:38:21.207Z,10.47
2023-04-18T01:41:23.251Z,10.48
2023-04-18T01:44:24.887Z,10.52
2023-04-18T01:47:26.612Z,10.43
2023-04-18T01:50:28.278Z,10.35
2023-04-18T01:53:30.871Z,10.39
2023-04-18T01:56:32.552Z,10.45
2023-04-18T01:59:34.205Z,10.32
2023-04-18T02:02:35.987Z,10.29
2023-04-18T02:05:37.716Z,10.26
2023-04-18T02:08:39.329Z,10.23
2023-04-18T02:11:40.996Z,10.27
2023-04-18T02:14:42.716Z,10.27
2023-04-18T02:17:44.452Z,10.49
2023-04-18T02:20:46.074Z,10.26
2023-04-18T02:23:47.667Z,10.27
2023-04-18T02:26:49.764Z,10.11
2023-04-18T02:29:51.360Z,10.20
2023-04-18T02:32:54.303Z,10.11
2023-04-18T02:35:56.160Z,10.09
2023-04-18T02:38:57.816Z,10.20
2023-04-18T02:41:59.485Z,10.13
2023-04-18T02:45:01.156Z,10.16
2023-04-18T02:48:02.917Z,10.15
2023-04-18T02:51:06.111Z,10.06
2023-04-18T02:54:07.894Z,10.14
2023-04-18T02:57:09.521Z,10.16
2023-04-18T03:00:11.950Z,10.19
2023-04-18T03:03:13.671Z,10.20
2023-04-18T03:06:15.317Z,10.17
2023-04-18T03:09:17.128Z,10.23
2023-04-18T03:12:18.776Z,10.19
2023-04-18T03:15:20.656Z,10.23
2023-04-18T03:18:22.325Z,10.18
2023-04-18T03:21:23.991Z,10.06
2023-04-18T03:24:25.610Z,10.23
2023-04-18T03:27:27.222Z,10.17
2023-04-18T03:30:28.859Z,10.05
2023-04-18T03:33:30.566Z,10.25
2023-04-18T03:36:32.230Z,10.31
2023-04-18T03:39:33.882Z,10.23
2023-04-18T03:42:35.530Z,10.27
2023-04-18T03:45:37.376Z,10.22
2023-04-18T03:48:39.017Z,10.10
2023-04-18T03:51:47.772Z,10.14
2023-04-18T03:54:49.612Z,10.17
2023-04-18T03:57:51.573Z,10.14
2023-04-18T04:00:53.304Z,10.16
2023-04-18T04:03:55.059Z,10.26
2023-04-18T04:06:56.984Z,10.21
2023-04-18T04:09:58.854Z,10.20
2023-04-18T04:13:00.597Z,10.16
2023-04-18T04:16:02.584Z,10.06
2023-04-18T04:19:04.712Z,10.15
2023-04-18T04:22:06.403Z,10.13
2023-04-18T04:25:08.629Z,10.11
2023-04-18T04:28:11.019Z,10.04
2023-04-18T04:31:12.630Z,10.05
2023-04-18T04:34:14.630Z,10.11
2023-04-18T04:37:18.825Z,10.15
2023-04-18T04:40:20.550Z,10.02
2023-04-18T04:43:22.179Z,9.94
2023-04-18T04:46:23.976Z,9.89
2023-04-18T04:49:25.950Z,10.04
2023-04-18T04:52:27.583Z,10.06
2023-04-18T04:55:29.256Z,10.04
2023-04-18T04:58:31.157Z,10.05
2023-04-18T05:01:34.807Z,9.95
2023-04-18T05:04:36.992Z,10.12
2023-04-18T05:07:38.733Z,10.04
2023-04-18T05:10:41.044Z,10.12
2023-04-18T05:13:42.772Z,10.09
2023-04-18T05:16:44.535Z,10.22
2023-04-18T05:19:46.452Z,10.31
2023-04-18T05:22:48.107Z,10.21
2023-04-18T05:25:49.894Z,10.30
2023-04-18T05:28:51.697Z,10.26
2023-04-18T05:31:54.035Z,10.38
2023-04-18T05:34:56.075Z,10.53
2023-04-18T05:37:58.728Z,10.62
2023-04-18T05:41:00.488Z,10.73
2023-04-18T05:44:05.588Z,10.79
2023-04-18T05:47:07.649Z,10.72
2023-04-18T05:50:09.637Z,10.68
2023-04-18T05:53:11.307Z,10.72
2023-04-18T05:56:12.898Z,10.81
2023-04-18T05:59:14.576Z,11.06
2023-04-18T06:02:16.368Z,11.01
2023-04-18T06:05:18.240Z,11.02
2023-04-18T06:08:20.244Z,11.03
2023-04-18T06:11:22.732Z,11.11
2023-04-18T06:14:24.437Z,11.14
2023-04-18T06:17:26.126Z,11.01
2023-04-18T06:20:27.836Z,11.18
2023-04-18T06:23:29.469Z,11.00
2023-04-18T06:26:32.085Z,11.37
2023-04-18T06:29:35.527Z,11.28
2023-04-18T06:32:37.834Z,11.22
2023-04-18T06:35:39.731Z,11.13
2023-04-18T06:38:41.358Z,11.50
2023-04-18T06:41:42.980Z,11.55
2023-04-18T06:44:44.720Z,11.63
2023-04-18T06:47:47.840Z,11.93
2023-04-18T06:50:49.507Z,12.28
2023-04-18T06:53:53.031Z,12.18
2023-04-18T06:56:54.759Z,12.28
2023-04-18T06:59:56.380Z,12.55
2023-04-18T07:02:58.164Z,13.14
2023-04-18T07:06:00.038Z,13.56
2023-04-18T07:09:01.889Z,13.24
2023-04-18T07:12:03.596Z,13.73
2023-04-18T07:15:05.795Z,14.22
2023-04-18T07:18:07.477Z,14.22
2023-04-18T07:21:09.268Z,14.27
2023-04-18T07:24:12.226Z,14.98
2023-04-18T07:27:14.889Z,14.81
2023-04-18T07:30:16.549Z,14.64
2023-04-18T07:33:18.192Z,15.54
2023-04-18T07:36:20.134Z,16.22
2023-04-18T07:39:21.776Z,17.13
2023-04-18T07:42:23.403Z,18.65
2023-04-18T07:45:25.096Z,18.51
2023-04-18T07:48:26.958Z,18.50
2023-04-18T07:51:31.842Z,18.95
2023-04-18T07:54:33.609Z,22.09
2023-04-18T07:57:35.279Z,22.68
2023-04-18T08:00:39.208Z,22.87
2023-04-18T08:03:41.875Z,21.79
2023-04-18T08:06:43.642Z,23.44
2023-04-18T08:09:45.958Z,23.91
2023-04-18T08:12:47.593Z,23.55
2023-04-18T08:15:49.276Z,23.42
2023-04-18T08:18:50.970Z,22.44
2023-04-18T08:21:52.612Z,20.62
2023-04-18T08:25:04.497Z,20.93
2023-04-18T08:28:07.343Z,20.25
2023-04-18T08:31:12.912Z,19.09
2023-04-18T08:34:14.568Z,17.60
2023-04-18T08:37:16.298Z,18.48
2023-04-18T08:40:18.672Z,19.11
2023-04-18T08:43:20.407Z,21.20
2023-04-18T08:46:22.866Z,20.11
2023-04-18T08:49:25.021Z,19.19
2023-04-18T08:52:30.713Z,21.86
2023-04-18T08:55:33.732Z,23.29
2023-04-18T08:58:35.378Z,25.22
2023-04-18T09:01:49.236Z,27.09
2023-04-18T09:04:53.799Z,28.54
2023-04-18T09:07:56.740Z,27.72
2023-04-18T09:11:26.230Z,26.01
2023-04-18T09:14:27.915Z,27.67
2023-04-18T09:17:45.551Z,28.98
2023-04-18T09:20:48.936Z,29.48
2023-04-18T09:23:50.611Z,27.21
2023-04-18T09:26:59.907Z,29.83
2023-04-18T09:30:01.604Z,30.29
2023-04-18T09:33:05.453Z,28.59
2023-04-18T09:36:21.621Z,27.77
2023-04-18T09:39:29.497Z,26.17
2023-04-18T09:42:36.255Z,25.40
2023-04-18T09:45:38.332Z,21.69
2023-04-18T09:48:40.901Z,23.52
2023-04-18T09:51:44.705Z,22.03
2023-04-18T09:54:48.673Z,21.12
2023-04-18T09:57:53.035Z,19.46
2023-04-18T10:00:55.665Z,18.86
2023-04-18T10:03:57.829Z,18.77
2023-04-18T10:07:00.812Z,18.73
2023-04-18T10:10:02.526Z,17.94
2023-04-18T10:13:06.642Z,18.30
2023-04-18T10:16:08.511Z,18.62
2023-04-18T10:19:20.664Z,18.77
2023-04-18T10:22:27.828Z,19.23
2023-04-18T10:25:38.513Z,19.71
2023-04-18T10:28:49.078Z,20.03
2023-04-18T10:31:50.774Z,19.20
2023-04-18T10:34:56.211Z,19.67
2023-04-18T10:37:59.678Z,19.32
2023-04-18T10:41:18.558Z,19.31
2023-04-18T10:44:22.930Z,19.05
2023-04-18T10:47:25.157Z,20.15
2023-04-18T10:50:26.865Z,19.04
2023-04-18T10:53:28.504Z,19.49
2023-04-18T10:56:30.337Z,18.49
2023-04-18T10:59:33.798Z,18.80
2023-04-18T11:02:36.191Z,19.34
2023-04-18T11:05:38.018Z,18.62
2023-04-18T11:08:40.703Z,18.47
2023-04-18T11:11:44.108Z,18.57
2023-04-18T11:14:54.308Z,19.09
2023-04-18T11:18:00.023Z,18.59
2023-04-18T11:21:03.831Z,18.17
2023-04-18T11:24:05.689Z,17.92
2023-04-18T11:27:12.006Z,18.32
2023-04-18T11:30:14.811Z,18.08
2023-04-18T11:33:16.830Z,17.96
2023-04-18T11:36:18.650Z,18.05
2023-04-18T11:39:20.584Z,18.47
2023-04-18T11:42:28.035Z,18.54
2023-04-18T11:45:29.766Z,19.09
2023-04-18T11:48:41.702Z,18.62
2023-04-18T11:51:44.801Z,18.88
2023-04-18T11:54:46.600Z,18.93
2023-04-18T11:57:59.293Z,18.38
2023-04-18T12:01:25.210Z,18.53
2023-04-18T12:04:27.033Z,18.77
2023-04-18T12:07:38.073Z,18.32
2023-04-18T12:10:46.705Z,18.59
2023-04-18T12:13:48.337Z,18.27
2023-04-18T12:16:50.819Z,18.41
2023-04-18T12:19:53.927Z,19.04
2023-04-18T12:22:55.747Z,18.25
2023-04-18T12:26:05.736Z,18.73
2023-04-18T12:29:07.418Z,19.10
2023-04-18T12:32:09.127Z,18.70
2023-04-18T12:35:10.792Z,19.30
2023-04-18T12:38:12.516Z,18.89
2023-04-18T12:41:14.142Z,18.24
2023-04-18T12:44:16.012Z,18.81
2023-04-18T12:47:17.785Z,18.53
2023-04-18T12:50:25.063Z,19.36
2023-04-18T12:53:26.879Z,20.15
2023-04-18T12:56:28.593Z,19.69
2023-04-18T12:59:30.779Z,19.40
2023-04-18T13:02:34.466Z,20.11
2023-04-18T13:05:36.368Z,19.87
2023-04-18T13:08:38.655Z,19.12
2023-04-18T13:11:40.306Z,19.50
2023-04-18T13:14:42.696Z,19.40
2023-04-18T13:17:44.837Z,19.25
2023-04-18T13:20:46.820Z,19.10
2023-04-18T13:23:48.521Z,18.80
2023-04-18T13:26:50.250Z,18.27
2023-04-18T13:29:52.131Z,17.31
2023-04-18T13:32:55.006Z,17.65
2023-04-18T13:35:56.704Z,17.41
2023-04-18T13:38:58.381Z,17.12
2023-04-18T13:42:00.081Z,17.75
2023-04-18T13:45:01.821Z,18.34
2023-04-18T13:48:03.669Z,18.52
2023-04-18T13:51:05.781Z,19.96
2023-04-18T13:54:07.692Z,19.22
2023-04-18T13:57:11.743Z,20.03
2023-04-18T14:00:14.419Z,18.68
2023-04-18T14:03:16.378Z,18.15
2023-04-18T14:06:18.126Z,17.36
2023-04-18T14:09:19.858Z,17.33
2023-04-18T14:12:21.824Z,17.07
2023-04-18T14:15:23.712Z,17.28
2023-04-18T14:18:25.504Z,17.19
2023-04-18T14:21:27.820Z,17.19
2023-04-18T14:24:29.427Z,16.78
2023-04-18T14:27:31.100Z,17.01
2023-04-18T14:30:32.940Z,16.71
2023-04-18T14:33:34.896Z,16.37
2023-04-18T14:36:36.915Z,16.41
2023-04-18T14:39:38.614Z,16.62
2023-04-18T14:42:40.310Z,16.58
2023-04-18T14:45:41.981Z,16.69
2023-04-18T14:48:49.599Z,16.84
2023-04-18T14:51:51.439Z,17.05
2023-04-18T14:54:53.113Z,17.25
2023-04-18T14:57:54.865Z,17.62
2023-04-18T15:00:56.492Z,17.79
2023-04-18T15:03:58.343Z,17.46
2023-04-18T15:07:00.182Z,17.52
2023-04-18T15:10:02.154Z,17.92
2023-04-18T15:13:04.461Z,17.58
2023-04-18T15:16:06.721Z,17.20
2023-04-18T15:19:08.442Z,17.07
2023-04-18T15:22:10.830Z,16.78
2023-04-18T15:25:16.358Z,16.77
2023-04-18T15:28:18.725Z,16.65
2023-04-18T15:31:21.800Z,16.67
2023-04-18T15:34:23.812Z,16.36
2023-04-18T15:37:26.372Z,16.82
2023-04-18T15:40:28.064Z,16.52
2023-04-18T15:43:29.672Z,16.47
2023-04-18T15:46:31.405Z,16.74
2023-04-18T15:49:33.210Z,17.06
2023-04-18T15:52:34.890Z,16.94
2023-04-18T15:55:36.556Z,16.85
2023-04-18T15:58:38.183Z,17.01
2023-04-18T16:01:39.899Z,16.64
2023-04-18T16:04:41.573Z,16.44
2023-04-18T16:07:43.518Z,16.03
2023-04-18T16:10:45.407Z,15.93
2023-04-18T16:13:47.180Z,15.91
2023-04-18T16:16:48.874Z,15.90
2023-04-18T16:19:50.595Z,15.83
2023-04-18T16:22:52.244Z,15.45
2023-04-18T16:25:55.281Z,15.44
2023-04-18T16:28:57.136Z,15.46
2023-04-18T16:31:58.949Z,15.39
2023-04-18T16:35:00.626Z,15.40
2023-04-18T16:38:02.377Z,15.43
2023-04-18T16:41:04.282Z,15.45
2023-04-18T16:44:05.969Z,15.39
2023-04-18T16:47:08.432Z,15.31
2023-04-18T16:50:10.386Z,15.26
2023-04-18T16:53:12.255Z,15.35
2023-04-18T16:56:14.197Z,15.16
2023-04-18T16:59:15.908Z,15.28
2023-04-18T17:02:17.721Z,15.13
2023-04-18T17:05:19.917Z,15.11
2023-04-18T17:08:21.659Z,14.87
2023-04-18T17:11:23.413Z,14.90
2023-04-18T17:14:25.049Z,14.79
2023-04-18T17:17:27.046Z,14.52
2023-04-18T17:20:28.796Z,14.67
2023-04-18T17:23:32.645Z,14.51
2023-04-18T17:26:35.777Z,14.40
2023-04-18T17:29:38.116Z,14.19
2023-04-18T17:32:45.705Z,14.11
2023-04-18T17:35:48.452Z,14.27
2023-04-18T17:38:51.368Z,14.19
2023-04-18T17:41:53.842Z,14.12
2023-04-18T17:44:56.357Z,14.00
2023-04-18T17:47:59.777Z,13.96
2023-04-18T17:51:03.175Z,14.01
2023-04-18T17:54:05.940Z,14.15
2023-04-18T17:57:09.357Z,14.20
2023-04-18T18:00:13.906Z,14.09
2023-04-18T18:03:17.759Z,13.84
2023-04-18T18:06:20.082Z,13.60
2023-04-18T18:09:22.080Z,13.53
2023-04-18T18:12:24.866Z,13.61
2023-04-18T18:15:28.557Z,13.26
2023-04-18T18:18:31.808Z,13.27
2023-04-18T18:21:33.987Z,13.19
2023-04-18T18:24:36.231Z,13.27
2023-04-18T18:27:38.651Z,13.17
2023-04-18T18:30:40.924Z,13.09
2023-04-18T18:33:43.268Z,13.03
2023-04-18T18:36:45.539Z,13.01
2023-04-18T18:39:48.755Z,12.99
2023-04-18T18:42:52.006Z,12.98
2023-04-18T18:45:54.596Z,12.81
2023-04-18T18:48:57.127Z,12.87
2023-04-18T18:51:59.395Z,12.80
2023-04-18T18:55:02.092Z,12.73
2023-04-18T18:58:04.270Z,12.71
2023-04-18T19:01:06.864Z,12.71
2023-04-18T19:04:10.226Z,12.66
2023-04-18T19:07:12.933Z,12.78
2023-04-18T19:10:16.742Z,12.71
2023-04-18T19:13:23.344Z,12.74
2023-04-18T19:16:25.923Z,12.73
2023-04-18T19:19:28.966Z,12.88
2023-04-18T19:22:32.175Z,12.84
2023-04-18T19:25:36.326Z,12.97
2023-04-18T19:28:41.716Z,12.89
2023-04-18T19:31:45.036Z,12.92
2023-04-18T19:34:49.068Z,12.93
2023-04-18T19:37:51.790Z,13.01
2023-04-18T19:40:55.473Z,13.16
2023-04-18T19:43:57.848Z,13.22
2023-04-18T19:47:00.547Z,13.06
2023-04-18T19:50:03.879Z,13.04
2023-04-18T19:53:13.931Z,12.99
2023-04-18T19:56:16.221Z,12.93
2023-04-18T19:59:18.598Z,13.17
2023-04-18T20:02:22.854Z,13.16
2023-04-18T20:05:25.229Z,13.17
2023-04-18T20:08:27.574Z,13.09
2023-04-18T20:11:29.694Z,13.00
2023-04-18T20:14:33.091Z,12.99
2023-04-18T20:17:38.682Z,13.20
2023-04-18T20:20:41.724Z,13.13
2023-04-18T20:23:45.039Z,13.07
2023-04-18T20:26:47.799Z,13.16
2023-04-18T20:29:49.853Z,12.90
2023-04-18T20:32:52.190Z,13.02
2023-04-18T20:35:55.261Z,12.98
2023-04-18T20:38:57.508Z,13.07
2023-04-18T20:42:01.625Z,13.06
2023-04-18T20:45:04.430Z,13.07
2023-04-18T20:48:06.551Z,12.98
2023-04-18T20:51:08.232Z,12.98
2023-04-18T20:54:10.045Z,12.86
2023-04-18T20:57:14.789Z,13.02
2023-04-18T21:00:17.007Z,12.93
2023-04-18T21:03:18.872Z,13.15
2023-04-18T21:06:22.216Z,13.07
2023-04-18T21:09:23.929Z,13.02
2023-04-18T21:12:25.631Z,13.08
2023-04-18T21:15:27.245Z,13.11
2023-04-18T21:18:29.456Z,13.02
2023-04-18T21:21:31.666Z,13.16
2023-04-18T21:24:33.781Z,13.10
2023-04-18T21:27:35.500Z,13.13
2023-04-18T21:30:37.230Z,12.97
2023-04-18T21:33:38.869Z,12.81
2023-04-18T21:36:40.872Z,12.74
2023-04-18T21:39:42.652Z,12.84
2023-04-18T21:42:44.622Z,12.89
2023-04-18T21:45:46.510Z,12.90
2023-04-18T21:48:48.744Z,12.92
2023-04-18T21:51:50.544Z,13.00
2023-04-18T21:54:52.325Z,12.90
2023-04-18T21:57:54.371Z,12.84
2023-04-18T22:00:56.660Z,12.80
2023-04-18T22:03:58.466Z,12.60
2023-04-18T22:07:00.630Z,12.60
2023-04-18T22:10:02.295Z,12.57
2023-04-18T22:13:04.845Z,12.41
2023-04-18T22:16:08.342Z,12.36
2023-04-18T22:19:10.927Z,12.46
2023-04-18T22:22:12.521Z,12.39
2023-04-18T22:25:14.262Z,12.34
2023-04-18T22:28:16.079Z,12.31
2023-04-18T22:31:17.782Z,12.28
2023-04-18T22:34:19.433Z,12.27
2023-04-18T22:37:21.090Z,12.27
2023-04-18T22:40:22.788Z,12.22
2023-04-18T22:43:24.977Z,12.23
2023-04-18T22:46:27.419Z,12.15
2023-04-18T22:49:30.106Z,12.06
2023-04-18T22:52:31.764Z,12.06
2023-04-18T22:55:33.459Z,12.10
2023-04-18T22:58:35.132Z,12.04
2023-04-18T23:01:36.802Z,12.04
2023-04-18T23:04:40.112Z,12.03
2023-04-18T23:07:42.016Z,12.01
2023-04-18T23:10:43.753Z,12.00
2023-04-18T23:13:45.405Z,12.05
2023-04-18T23:16:47.015Z,11.92
2023-04-18T23:19:48.739Z,11.93
2023-04-18T23:22:51.820Z,11.94
2023-04-18T23:25:53.671Z,11.83
2023-04-18T23:28:55.331Z,11.90
2023-04-18T23:31:56.973Z,11.94
2023-04-18T23:34:58.653Z,11.91
2023-04-18T23:38:00.364Z,11.97
2023-04-18T23:41:02.020Z,11.95
2023-04-18T23:44:03.719Z,11.92
2023-04-18T23:47:05.938Z,11.87
2023-04-18T23:50:08.315Z,11.84
2023-04-18T23:53:09.966Z,11.78
2023-04-18T23:56:11.610Z,11.80
2023-04-18T23:59:13.254Z,11.78
